Игнатово

Карта отелей и гостиниц, располагающихся рядом с аэропортом Игнатово :

Игнатово
Иваново
Ивановская область 56° 56' 52.5912" N, 40° 57' 12.0312" E
Игнатово
Иваново
Ивановская область 56° 56' 52.5912" N, 40° 57' 12.0312" E
Код аэродрома ИКАО
UUIO
Код аэродрома RU
УУИО
Координаты
N56.94794° E040.95334°
Превышение над уровнем моря
126
Основная полоса
07/25
Курс магнитный
068,3/248,3
Длина основной ВПП
38
Ширина основной ВПП
38
Покрытие основной ВПП
Твёрдое (асфальтобетон)
Освещение ВПП
Нет
Тип: 
Вертодром
Класс аэродрома: 
Принадлежность: 
ГА
Статус: 
Действующий
Сайт: 
E-mail аэродрома: 
Страна: 
Россия
Регион: 
Ивановская область
Город: 
Иваново
Дополнительная информация: 
Владелец ПП: ООО "Центр Авиа". Принимает вертолеты до 13000 кг включительно. PCN: 8/F/B/X/T. Для выхода ВС в район ПП возможно использовать ОПРС Д (LMM D) по предварительному запросу или в часы работы аэродрома ИВАНОВО (Южный) с МКпос = 289?. АНППП зарегистрирован в МТУ ВТ ЦР ФАВТ 18 авг 2017 за №ЦП3-490. Разрешенный сектор взлета и посадки 313?-356?.

Найти трансфер

С помощью этой формы Вы можете найти трансфер из аэропорта Игнатово в город, аэропорт или вокзал:

Карта места

Javascript is required to view this map.

Погода в аэропортах:

Авиационная погода в Белгороде

Регион: 
Погода METAR: 
UUOB 281300Z 17002MPS 7000 2000E BR OVC012 07/06 Q1008 R11/290060 NOSIG
Время наблюдения
2021-11-28T13:00:00Z
Температура C
7.0
Точка росы
6.0
Направление ветра
170
Скорость ветра (узлы)
4
Метео видимость
4.35
Явления погоды
BR
Условия полета
MVFR
Аэропорт подробнее: 

Авиационная погода в Симферополе

Погода METAR: 
URFF 281300Z 13002MPS 7000 -SHRA BKN033CB OVC063 13/13 Q1006 R19/290395 NOSIG
Время наблюдения
2021-11-28T13:00:00Z
Температура C
13.0
Точка росы
13.0
Направление ветра
130
Скорость ветра (узлы)
4
Метео видимость
4.35
Явления погоды
-SHRA
Условия полета
MVFR
Аэропорт подробнее: 

Авиационная погода в Бресте

Регион: 
Погода METAR: 
UMBB 281100Z 07003MPS 5000 BR OVC040 02/01 Q0999 NOSIG
Время наблюдения
2021-11-28T11:00:00Z
Температура C
2.0
Точка росы
1.0
Направление ветра
70
Скорость ветра (узлы)
6
Метео видимость
3.11
Явления погоды
BR
Условия полета
MVFR
Аэропорт подробнее: 

Авиационная погода в Гродно

Регион: 
Погода METAR: 
UMMG 281100Z 14003MPS 5000 BR SCT020 OVC100 02/M00 Q1000 NOSIG
Время наблюдения
2021-11-28T11:00:00Z
Температура C
2.0
Точка росы
0.0
Направление ветра
140
Скорость ветра (узлы)
6
Метео видимость
3.11
Явления погоды
BR
Условия полета
MVFR
Аэропорт подробнее: